sensor_id;sensor_type;location;lat;lon;timestamp;temperature;humidity
69731;SHT31;56996;48.138;11.538;2022-09-16T00:00:51;15.83;73.88
69731;SHT31;56996;48.138;11.538;2022-09-16T00:03:17;15.84;73.80
69731;SHT31;56996;48.138;11.538;2022-09-16T00:05:46;15.85;73.82
69731;SHT31;56996;48.138;11.538;2022-09-16T00:08:17;15.85;73.89
69731;SHT31;56996;48.138;11.538;2022-09-16T00:10:45;15.81;74.05
69731;SHT31;56996;48.138;11.538;2022-09-16T00:13:14;15.73;74.19
69731;SHT31;56996;48.138;11.538;2022-09-16T00:15:44;15.68;74.38
69731;SHT31;56996;48.138;11.538;2022-09-16T00:18:16;15.67;74.56
69731;SHT31;56996;48.138;11.538;2022-09-16T00:20:44;15.69;74.62
69731;SHT31;56996;48.138;11.538;2022-09-16T00:23:13;15.71;74.60
69731;SHT31;56996;48.138;11.538;2022-09-16T00:25:40;15.72;74.60
69731;SHT31;56996;48.138;11.538;2022-09-16T00:28:07;15.71;74.62
69731;SHT31;56996;48.138;11.538;2022-09-16T00:30:34;15.73;74.59
69731;SHT31;56996;48.138;11.538;2022-09-16T00:33:00;15.73;74.65
69731;SHT31;56996;48.138;11.538;2022-09-16T00:35:27;15.74;74.60
69731;SHT31;56996;48.138;11.538;2022-09-16T00:37:54;15.73;74.50
69731;SHT31;56996;48.138;11.538;2022-09-16T00:40:20;15.73;74.50
69731;SHT31;56996;48.138;11.538;2022-09-16T00:42:48;15.73;74.57
69731;SHT31;56996;48.138;11.538;2022-09-16T00:45:18;15.72;74.62
69731;SHT31;56996;48.138;11.538;2022-09-16T00:48:05;15.69;74.62
69731;SHT31;56996;48.138;11.538;2022-09-16T00:50:40;15.64;74.75
69731;SHT31;56996;48.138;11.538;2022-09-16T00:53:28;15.62;74.88
69731;SHT31;56996;48.138;11.538;2022-09-16T00:56:09;15.64;74.99
69731;SHT31;56996;48.138;11.538;2022-09-16T00:58:41;15.63;75.01
69731;SHT31;56996;48.138;11.538;2022-09-16T01:01:13;15.61;75.16
69731;SHT31;56996;48.138;11.538;2022-09-16T01:03:44;15.58;75.20
69731;SHT31;56996;48.138;11.538;2022-09-16T01:06:18;15.55;75.28
69731;SHT31;56996;48.138;11.538;2022-09-16T01:08:45;15.49;75.46
69731;SHT31;56996;48.138;11.538;2022-09-16T01:11:15;15.42;75.68
69731;SHT31;56996;48.138;11.538;2022-09-16T01:13:41;15.39;75.82
69731;SHT31;56996;48.138;11.538;2022-09-16T01:19:48;15.40;75.99
69731;SHT31;56996;48.138;11.538;2022-09-16T01:30:55;15.32;76.20
69731;SHT31;56996;48.138;11.538;2022-09-16T01:36:31;15.28;76.25
69731;SHT31;56996;48.138;11.538;2022-09-16T01:45:04;15.15;76.67
69731;SHT31;56996;48.138;11.538;2022-09-16T01:47:47;15.14;76.63
69731;SHT31;56996;48.138;11.538;2022-09-16T01:50:42;15.10;76.49
69731;SHT31;56996;48.138;11.538;2022-09-16T01:55:49;15.08;76.35
69731;SHT31;56996;48.138;11.538;2022-09-16T01:58:21;15.08;76.30
69731;SHT31;56996;48.138;11.538;2022-09-16T02:00:59;15.10;76.18
69731;SHT31;56996;48.138;11.538;2022-09-16T02:03:35;15.08;76.18
69731;SHT31;56996;48.138;11.538;2022-09-16T02:06:09;15.10;76.18
69731;SHT31;56996;48.138;11.538;2022-09-16T02:11:55;15.19;75.45
69731;SHT31;56996;48.138;11.538;2022-09-16T02:14:31;15.14;75.14
69731;SHT31;56996;48.138;11.538;2022-09-16T02:17:06;15.12;75.17
69731;SHT31;56996;48.138;11.538;2022-09-16T02:19:38;15.06;75.33
69731;SHT31;56996;48.138;11.538;2022-09-16T02:22:17;15.05;75.41
69731;SHT31;56996;48.138;11.538;2022-09-16T02:24:50;15.07;75.44
69731;SHT31;56996;48.138;11.538;2022-09-16T02:27:18;15.08;75.42
69731;SHT31;56996;48.138;11.538;2022-09-16T02:29:50;15.11;75.39
69731;SHT31;56996;48.138;11.538;2022-09-16T02:32:26;15.15;75.23
69731;SHT31;56996;48.138;11.538;2022-09-16T02:34:56;15.19;75.10
69731;SHT31;56996;48.138;11.538;2022-09-16T02:37:26;15.21;75.00
69731;SHT31;56996;48.138;11.538;2022-09-16T02:40:09;15.23;74.93
69731;SHT31;56996;48.138;11.538;2022-09-16T02:43:01;15.27;74.90
69731;SHT31;56996;48.138;11.538;2022-09-16T02:45:33;15.31;74.86
69731;SHT31;56996;48.138;11.538;2022-09-16T02:48:12;15.32;74.84
69731;SHT31;56996;48.138;11.538;2022-09-16T02:53:58;15.34;74.76
69731;SHT31;56996;48.138;11.538;2022-09-16T02:56:44;15.32;74.82
69731;SHT31;56996;48.138;11.538;2022-09-16T02:59:12;15.33;74.79
69731;SHT31;56996;48.138;11.538;2022-09-16T03:01:41;15.34;74.74
69731;SHT31;56996;48.138;11.538;2022-09-16T03:04:12;15.35;74.75
69731;SHT31;56996;48.138;11.538;2022-09-16T03:06:42;15.34;74.70
69731;SHT31;56996;48.138;11.538;2022-09-16T03:09:11;15.28;74.78
69731;SHT31;56996;48.138;11.538;2022-09-16T03:11:46;15.20;74.94
69731;SHT31;56996;48.138;11.538;2022-09-16T03:19:58;15.12;75.26
69731;SHT31;56996;48.138;11.538;2022-09-16T03:22:47;15.14;75.26
69731;SHT31;56996;48.138;11.538;2022-09-16T03:28:16;15.17;75.20
69731;SHT31;56996;48.138;11.538;2022-09-16T03:30:56;15.16;75.20
69731;SHT31;56996;48.138;11.538;2022-09-16T03:36:06;15.13;75.24
69731;SHT31;56996;48.138;11.538;2022-09-16T03:38:39;15.16;75.14
69731;SHT31;56996;48.138;11.538;2022-09-16T03:41:07;15.18;75.08
69731;SHT31;56996;48.138;11.538;2022-09-16T03:43:36;15.17;75.08
69731;SHT31;56996;48.138;11.538;2022-09-16T03:46:02;15.18;75.00
69731;SHT31;56996;48.138;11.538;2022-09-16T03:48:31;15.20;74.86
69731;SHT31;56996;48.138;11.538;2022-09-16T03:50:57;15.19;74.94
69731;SHT31;56996;48.138;11.538;2022-09-16T03:53:24;15.18;74.87
69731;SHT31;56996;48.138;11.538;2022-09-16T03:55:51;15.17;74.90
69731;SHT31;56996;48.138;11.538;2022-09-16T03:58:17;15.17;74.96
69731;SHT31;56996;48.138;11.538;2022-09-16T04:00:47;15.15;75.02
69731;SHT31;56996;48.138;11.538;2022-09-16T04:03:16;15.14;74.97
69731;SHT31;56996;48.138;11.538;2022-09-16T04:05:43;15.12;75.06
69731;SHT31;56996;48.138;11.538;2022-09-16T04:08:10;15.15;75.10
69731;SHT31;56996;48.138;11.538;2022-09-16T04:10:37;15.18;75.09
69731;SHT31;56996;48.138;11.538;2022-09-16T04:13:03;15.20;75.09
69731;SHT31;56996;48.138;11.538;2022-09-16T04:15:30;15.18;75.23
69731;SHT31;56996;48.138;11.538;2022-09-16T04:18:00;15.17;75.30
69731;SHT31;56996;48.138;11.538;2022-09-16T04:20:26;15.19;75.28
69731;SHT31;56996;48.138;11.538;2022-09-16T04:22:53;15.19;75.30
69731;SHT31;56996;48.138;11.538;2022-09-16T04:25:20;15.20;75.22
69731;SHT31;56996;48.138;11.538;2022-09-16T04:27:46;15.24;75.09
69731;SHT31;56996;48.138;11.538;2022-09-16T04:30:13;15.26;74.83
69731;SHT31;56996;48.138;11.538;2022-09-16T04:32:39;15.27;74.83
69731;SHT31;56996;48.138;11.538;2022-09-16T04:35:06;15.26;74.83
69731;SHT31;56996;48.138;11.538;2022-09-16T04:37:34;15.26;74.81
69731;SHT31;56996;48.138;11.538;2022-09-16T04:40:00;15.26;74.80
69731;SHT31;56996;48.138;11.538;2022-09-16T04:42:30;15.27;74.89
69731;SHT31;56996;48.138;11.538;2022-09-16T04:44:57;15.27;74.82
69731;SHT31;56996;48.138;11.538;2022-09-16T04:47:24;15.27;74.80
69731;SHT31;56996;48.138;11.538;2022-09-16T04:49:50;15.25;74.87
69731;SHT31;56996;48.138;11.538;2022-09-16T04:52:17;15.22;74.90
69731;SHT31;56996;48.138;11.538;2022-09-16T04:54:43;15.21;74.91
69731;SHT31;56996;48.138;11.538;2022-09-16T04:57:10;15.22;74.88
69731;SHT31;56996;48.138;11.538;2022-09-16T04:59:37;15.21;74.90
69731;SHT31;56996;48.138;11.538;2022-09-16T05:02:03;15.20;74.91
69731;SHT31;56996;48.138;11.538;2022-09-16T05:04:30;15.22;74.82
69731;SHT31;56996;48.138;11.538;2022-09-16T05:06:57;15.23;74.70
69731;SHT31;56996;48.138;11.538;2022-09-16T05:09:23;15.22;74.56
69731;SHT31;56996;48.138;11.538;2022-09-16T05:11:51;15.21;74.50
69731;SHT31;56996;48.138;11.538;2022-09-16T05:14:17;15.21;74.45
69731;SHT31;56996;48.138;11.538;2022-09-16T05:16:44;15.23;74.41
69731;SHT31;56996;48.138;11.538;2022-09-16T05:19:12;15.23;74.41
69731;SHT31;56996;48.138;11.538;2022-09-16T05:21:39;15.25;74.32
69731;SHT31;56996;48.138;11.538;2022-09-16T05:24:07;15.28;74.30
69731;SHT31;56996;48.138;11.538;2022-09-16T05:26:38;15.25;74.40
69731;SHT31;56996;48.138;11.538;2022-09-16T05:29:09;15.25;74.20
69731;SHT31;56996;48.138;11.538;2022-09-16T05:31:40;15.27;74.11
69731;SHT31;56996;48.138;11.538;2022-09-16T05:34:12;15.29;74.11
69731;SHT31;56996;48.138;11.538;2022-09-16T05:36:43;15.28;74.07
69731;SHT31;56996;48.138;11.538;2022-09-16T05:39:13;15.24;74.11
69731;SHT31;56996;48.138;11.538;2022-09-16T05:41:53;15.27;73.75
69731;SHT31;56996;48.138;11.538;2022-09-16T05:44:25;15.30;73.55
69731;SHT31;56996;48.138;11.538;2022-09-16T05:46:53;15.31;73.41
69731;SHT31;56996;48.138;11.538;2022-09-16T05:49:20;15.31;73.33
69731;SHT31;56996;48.138;11.538;2022-09-16T05:51:48;15.34;73.20
69731;SHT31;56996;48.138;11.538;2022-09-16T05:54:17;15.36;73.06
69731;SHT31;56996;48.138;11.538;2022-09-16T05:56:44;15.39;72.92
69731;SHT31;56996;48.138;11.538;2022-09-16T05:59:13;15.41;72.92
69731;SHT31;56996;48.138;11.538;2022-09-16T06:01:41;15.48;72.85
69731;SHT31;56996;48.138;11.538;2022-09-16T06:04:10;15.55;72.75
69731;SHT31;56996;48.138;11.538;2022-09-16T06:06:40;15.60;72.48
69731;SHT31;56996;48.138;11.538;2022-09-16T06:11:48;15.68;72.19
69731;SHT31;56996;48.138;11.538;2022-09-16T06:14:17;15.72;72.26
69731;SHT31;56996;48.138;11.538;2022-09-16T06:16:48;15.74;72.27
69731;SHT31;56996;48.138;11.538;2022-09-16T06:19:15;15.74;72.13
69731;SHT31;56996;48.138;11.538;2022-09-16T06:21:43;15.72;72.02
69731;SHT31;56996;48.138;11.538;2022-09-16T06:24:12;15.75;71.93
69731;SHT31;56996;48.138;11.538;2022-09-16T06:26:41;15.79;71.94
69731;SHT31;56996;48.138;11.538;2022-09-16T06:29:10;15.81;72.03
69731;SHT31;56996;48.138;11.538;2022-09-16T06:31:37;15.84;71.96
69731;SHT31;56996;48.138;11.538;2022-09-16T06:34:05;15.86;71.96
69731;SHT31;56996;48.138;11.538;2022-09-16T06:36:35;15.88;72.09
69731;SHT31;56996;48.138;11.538;2022-09-16T06:39:10;15.90;72.01
69731;SHT31;56996;48.138;11.538;2022-09-16T06:41:38;15.85;72.39
69731;SHT31;56996;48.138;11.538;2022-09-16T06:44:05;15.80;72.91
69731;SHT31;56996;48.138;11.538;2022-09-16T06:46:32;15.84;72.97
69731;SHT31;56996;48.138;11.538;2022-09-16T06:48:59;15.92;73.12
69731;SHT31;56996;48.138;11.538;2022-09-16T06:51:31;15.90;72.47
69731;SHT31;56996;48.138;11.538;2022-09-16T06:54:00;15.89;73.11
69731;SHT31;56996;48.138;11.538;2022-09-16T06:56:30;15.92;73.12
69731;SHT31;56996;48.138;11.538;2022-09-16T06:58:59;15.84;72.73
69731;SHT31;56996;48.138;11.538;2022-09-16T07:01:27;15.81;72.95
69731;SHT31;56996;48.138;11.538;2022-09-16T07:03:56;15.86;73.21
69731;SHT31;56996;48.138;11.538;2022-09-16T07:06:26;15.92;72.87
69731;SHT31;56996;48.138;11.538;2022-09-16T07:09:14;15.86;72.41
69731;SHT31;56996;48.138;11.538;2022-09-16T07:11:42;15.81;72.52
69731;SHT31;56996;48.138;11.538;2022-09-16T07:14:08;15.85;72.46
69731;SHT31;56996;48.138;11.538;2022-09-16T07:16:35;15.89;72.79
69731;SHT31;56996;48.138;11.538;2022-09-16T07:19:02;15.95;72.64
69731;SHT31;56996;48.138;11.538;2022-09-16T07:21:30;16.02;72.32
69731;SHT31;56996;48.138;11.538;2022-09-16T07:23:58;16.09;72.23
69731;SHT31;56996;48.138;11.538;2022-09-16T07:26:27;16.14;71.91
69731;SHT31;56996;48.138;11.538;2022-09-16T07:28:58;16.16;71.66
69731;SHT31;56996;48.138;11.538;2022-09-16T07:31:28;16.16;71.39
69731;SHT31;56996;48.138;11.538;2022-09-16T07:33:59;16.21;71.20
69731;SHT31;56996;48.138;11.538;2022-09-16T07:36:31;16.25;70.91
69731;SHT31;56996;48.138;11.538;2022-09-16T07:39:07;16.32;70.58
69731;SHT31;56996;48.138;11.538;2022-09-16T07:41:35;16.33;70.51
69731;SHT31;56996;48.138;11.538;2022-09-16T07:44:06;16.31;70.64
69731;SHT31;56996;48.138;11.538;2022-09-16T07:46:35;16.31;70.65
69731;SHT31;56996;48.138;11.538;2022-09-16T07:49:03;16.29;70.73
69731;SHT31;56996;48.138;11.538;2022-09-16T07:51:33;16.29;70.82
69731;SHT31;56996;48.138;11.538;2022-09-16T07:54:01;16.31;70.72
69731;SHT31;56996;48.138;11.538;2022-09-16T07:56:33;16.37;70.80
69731;SHT31;56996;48.138;11.538;2022-09-16T07:59:03;16.41;70.53
69731;SHT31;56996;48.138;11.538;2022-09-16T08:01:33;16.45;70.63
69731;SHT31;56996;48.138;11.538;2022-09-16T08:04:05;16.47;70.37
69731;SHT31;56996;48.138;11.538;2022-09-16T08:06:32;16.52;70.24
69731;SHT31;56996;48.138;11.538;2022-09-16T08:08:59;16.55;70.01
69731;SHT31;56996;48.138;11.538;2022-09-16T08:11:46;16.57;69.82
69731;SHT31;56996;48.138;11.538;2022-09-16T08:14:13;16.53;69.85
69731;SHT31;56996;48.138;11.538;2022-09-16T08:16:39;16.55;70.09
69731;SHT31;56996;48.138;11.538;2022-09-16T08:19:07;16.60;69.85
69731;SHT31;56996;48.138;11.538;2022-09-16T08:21:34;16.64;69.27
69731;SHT31;56996;48.138;11.538;2022-09-16T08:24:01;16.65;69.35
69731;SHT31;56996;48.138;11.538;2022-09-16T08:26:27;16.69;69.51
69731;SHT31;56996;48.138;11.538;2022-09-16T08:28:54;16.79;69.54
69731;SHT31;56996;48.138;11.538;2022-09-16T08:31:34;16.87;69.43
69731;SHT31;56996;48.138;11.538;2022-09-16T08:34:00;16.95;69.44
69731;SHT31;56996;48.138;11.538;2022-09-16T08:36:27;17.00;69.09
69731;SHT31;56996;48.138;11.538;2022-09-16T08:38:54;17.01;69.19
69731;SHT31;56996;48.138;11.538;2022-09-16T08:41:38;17.08;69.04
69731;SHT31;56996;48.138;11.538;2022-09-16T08:49:36;17.17;67.92
69731;SHT31;56996;48.138;11.538;2022-09-16T08:52:12;17.17;68.09
69731;SHT31;56996;48.138;11.538;2022-09-16T08:54:58;17.21;68.11
69731;SHT31;56996;48.138;11.538;2022-09-16T08:57:38;17.23;68.01
69731;SHT31;56996;48.138;11.538;2022-09-16T09:00:17;17.24;68.06
69731;SHT31;56996;48.138;11.538;2022-09-16T09:02:53;17.32;68.12
69731;SHT31;56996;48.138;11.538;2022-09-16T09:05:34;17.39;68.17
69731;SHT31;56996;48.138;11.538;2022-09-16T09:11:12;17.40;67.56
69731;SHT31;56996;48.138;11.538;2022-09-16T09:14:42;17.43;67.62
69731;SHT31;56996;48.138;11.538;2022-09-16T09:17:37;17.50;67.44
69731;SHT31;56996;48.138;11.538;2022-09-16T09:35:23;17.55;68.24
69731;SHT31;56996;48.138;11.538;2022-09-16T09:43:30;17.50;68.68
69731;SHT31;56996;48.138;11.538;2022-09-16T09:46:47;17.49;68.35
69731;SHT31;56996;48.138;11.538;2022-09-16T09:54:44;17.13;69.24
69731;SHT31;56996;48.138;11.538;2022-09-16T09:57:21;17.03;69.56
69731;SHT31;56996;48.138;11.538;2022-09-16T10:00:03;16.93;70.41
69731;SHT31;56996;48.138;11.538;2022-09-16T10:02:41;16.83;70.79
69731;SHT31;56996;48.138;11.538;2022-09-16T10:05:25;16.76;71.40
69731;SHT31;56996;48.138;11.538;2022-09-16T10:07:54;16.60;71.52
69731;SHT31;56996;48.138;11.538;2022-09-16T10:10:26;16.49;71.87
69731;SHT31;56996;48.138;11.538;2022-09-16T10:13:06;16.47;72.36
69731;SHT31;56996;48.138;11.538;2022-09-16T10:15:42;16.49;72.44
69731;SHT31;56996;48.138;11.538;2022-09-16T10:18:27;16.39;72.69
69731;SHT31;56996;48.138;11.538;2022-09-16T10:23:37;16.24;73.32
69731;SHT31;56996;48.138;11.538;2022-09-16T10:28:31;16.21;73.71
69731;SHT31;56996;48.138;11.538;2022-09-16T10:30:58;16.14;74.32
69731;SHT31;56996;48.138;11.538;2022-09-16T10:33:30;16.07;74.38
69731;SHT31;56996;48.138;11.538;2022-09-16T10:36:02;16.04;74.71
69731;SHT31;56996;48.138;11.538;2022-09-16T10:38:37;16.01;75.21
69731;SHT31;56996;48.138;11.538;2022-09-16T10:41:07;15.99;75.39
69731;SHT31;56996;48.138;11.538;2022-09-16T10:43:55;15.96;75.37
69731;SHT31;56996;48.138;11.538;2022-09-16T10:46:27;15.89;75.58
69731;SHT31;56996;48.138;11.538;2022-09-16T10:48:59;15.85;75.94
69731;SHT31;56996;48.138;11.538;2022-09-16T10:51:35;15.84;75.55
69731;SHT31;56996;48.138;11.538;2022-09-16T10:54:03;15.86;75.64
69731;SHT31;56996;48.138;11.538;2022-09-16T10:56:32;15.84;75.79
69731;SHT31;56996;48.138;11.538;2022-09-16T10:59:05;15.80;75.33
69731;SHT31;56996;48.138;11.538;2022-09-16T11:01:42;15.60;72.03
69731;SHT31;56996;48.138;11.538;2022-09-16T11:07:47;15.17;72.47
69731;SHT31;56996;48.138;11.538;2022-09-16T11:19:06;14.54;74.62
69731;SHT31;56996;48.138;11.538;2022-09-16T11:28:26;14.70;74.89
69731;SHT31;56996;48.138;11.538;2022-09-16T11:31:25;14.64;75.04
69731;SHT31;56996;48.138;11.538;2022-09-16T11:35:10;14.64;75.09
69731;SHT31;56996;48.138;11.538;2022-09-16T11:37:48;14.61;75.39
69731;SHT31;56996;48.138;11.538;2022-09-16T11:40:53;14.60;75.37
69731;SHT31;56996;48.138;11.538;2022-09-16T11:43:59;14.45;75.21
69731;SHT31;56996;48.138;11.538;2022-09-16T11:50:05;14.18;74.69
69731;SHT31;56996;48.138;11.538;2022-09-16T11:52:58;14.23;74.82
69731;SHT31;56996;48.138;11.538;2022-09-16T11:56:50;14.19;75.23
69731;SHT31;56996;48.138;11.538;2022-09-16T12:02:08;14.13;75.38
69731;SHT31;56996;48.138;11.538;2022-09-16T12:04:47;14.16;75.20
69731;SHT31;56996;48.138;11.538;2022-09-16T12:07:28;14.03;74.75
69731;SHT31;56996;48.138;11.538;2022-09-16T12:13:15;13.88;75.58
69731;SHT31;56996;48.138;11.538;2022-09-16T12:15:51;13.83;76.22
69731;SHT31;56996;48.138;11.538;2022-09-16T12:18:25;13.88;76.14
69731;SHT31;56996;48.138;11.538;2022-09-16T12:23:37;13.86;76.20
69731;SHT31;56996;48.138;11.538;2022-09-16T12:26:09;13.86;76.17
69731;SHT31;56996;48.138;11.538;2022-09-16T12:28:46;13.81;76.34
69731;SHT31;56996;48.138;11.538;2022-09-16T12:31:29;13.80;76.74
69731;SHT31;56996;48.138;11.538;2022-09-16T12:34:40;13.82;76.62
69731;SHT31;56996;48.138;11.538;2022-09-16T12:37:31;13.83;76.34
69731;SHT31;56996;48.138;11.538;2022-09-16T12:40:02;13.83;75.77
69731;SHT31;56996;48.138;11.538;2022-09-16T12:45:53;13.78;75.91
69731;SHT31;56996;48.138;11.538;2022-09-16T12:52:25;13.81;76.48
69731;SHT31;56996;48.138;11.538;2022-09-16T13:03:52;13.82;76.82
69731;SHT31;56996;48.138;11.538;2022-09-16T13:06:33;13.82;76.08
69731;SHT31;56996;48.138;11.538;2022-09-16T13:09:19;13.74;75.44
69731;SHT31;56996;48.138;11.538;2022-09-16T13:14:48;13.60;75.96
69731;SHT31;56996;48.138;11.538;2022-09-16T13:17:29;13.57;75.83
69731;SHT31;56996;48.138;11.538;2022-09-16T13:20:05;13.65;76.07
69731;SHT31;56996;48.138;11.538;2022-09-16T13:22:47;13.76;75.74
69731;SHT31;56996;48.138;11.538;2022-09-16T13:25:25;13.81;75.14
69731;SHT31;56996;48.138;11.538;2022-09-16T13:28:00;13.80;74.81
69731;SHT31;56996;48.138;11.538;2022-09-16T13:30:50;13.73;75.10
69731;SHT31;56996;48.138;11.538;2022-09-16T13:33:20;13.72;74.87
69731;SHT31;56996;48.138;11.538;2022-09-16T13:38:46;13.94;73.76
69731;SHT31;56996;48.138;11.538;2022-09-16T13:41:34;13.96;73.81
69731;SHT31;56996;48.138;11.538;2022-09-16T13:47:05;13.97;73.82
69731;SHT31;56996;48.138;11.538;2022-09-16T13:49:48;13.99;74.07
69731;SHT31;56996;48.138;11.538;2022-09-16T13:52:20;14.02;73.06
69731;SHT31;56996;48.138;11.538;2022-09-16T13:54:58;13.98;72.71
69731;SHT31;56996;48.138;11.538;2022-09-16T14:00:46;13.97;73.60
69731;SHT31;56996;48.138;11.538;2022-09-16T14:03:45;14.00;73.27
69731;SHT31;56996;48.138;11.538;2022-09-16T14:09:39;13.95;73.80
69731;SHT31;56996;48.138;11.538;2022-09-16T14:15:09;14.02;73.29
69731;SHT31;56996;48.138;11.538;2022-09-16T14:20:17;13.82;73.62
69731;SHT31;56996;48.138;11.538;2022-09-16T14:22:47;13.88;73.88
69731;SHT31;56996;48.138;11.538;2022-09-16T14:25:33;13.95;74.13
69731;SHT31;56996;48.138;11.538;2022-09-16T14:28:09;14.04;74.06
69731;SHT31;56996;48.138;11.538;2022-09-16T14:33:42;14.17;73.44
69731;SHT31;56996;48.138;11.538;2022-09-16T14:36:23;14.24;73.18
69731;SHT31;56996;48.138;11.538;2022-09-16T14:41:55;14.36;73.63
69731;SHT31;56996;48.138;11.538;2022-09-16T14:44:41;14.43;73.13
69731;SHT31;56996;48.138;11.538;2022-09-16T14:50:23;14.49;72.98
69731;SHT31;56996;48.138;11.538;2022-09-16T14:55:27;14.38;73.04
69731;SHT31;56996;48.138;11.538;2022-09-16T14:58:01;14.35;73.04
69731;SHT31;56996;48.138;11.538;2022-09-16T15:00:30;14.35;72.54
69731;SHT31;56996;48.138;11.538;2022-09-16T15:03:57;14.36;72.79
69731;SHT31;56996;48.138;11.538;2022-09-16T15:06:15;14.36;72.26
69731;SHT31;56996;48.138;11.538;2022-09-16T15:08:48;14.31;72.12
69731;SHT31;56996;48.138;11.538;2022-09-16T15:11:28;14.26;71.68
69731;SHT31;56996;48.138;11.538;2022-09-16T15:14:13;14.20;72.08
69731;SHT31;56996;48.138;11.538;2022-09-16T15:16:42;14.23;72.27
69731;SHT31;56996;48.138;11.538;2022-09-16T15:19:24;14.27;72.00
69731;SHT31;56996;48.138;11.538;2022-09-16T15:21:55;14.33;72.49
69731;SHT31;56996;48.138;11.538;2022-09-16T15:24:23;14.41;72.38
69731;SHT31;56996;48.138;11.538;2022-09-16T15:26:56;14.45;72.84
69731;SHT31;56996;48.138;11.538;2022-09-16T15:29:32;14.49;73.01
69731;SHT31;56996;48.138;11.538;2022-09-16T15:32:14;14.52;72.96
69731;SHT31;56996;48.138;11.538;2022-09-16T15:38:09;14.42;73.19
69731;SHT31;56996;48.138;11.538;2022-09-16T15:40:40;14.33;73.35
69731;SHT31;56996;48.138;11.538;2022-09-16T15:46:15;14.26;73.58
69731;SHT31;56996;48.138;11.538;2022-09-16T15:48:49;14.22;73.65
69731;SHT31;56996;48.138;11.538;2022-09-16T15:54:24;14.16;74.10
69731;SHT31;56996;48.138;11.538;2022-09-16T15:57:39;14.13;73.80
69731;SHT31;56996;48.138;11.538;2022-09-16T16:00:09;14.08;74.12
69731;SHT31;56996;48.138;11.538;2022-09-16T16:02:53;14.09;73.87
69731;SHT31;56996;48.138;11.538;2022-09-16T16:05:24;14.08;74.11
69731;SHT31;56996;48.138;11.538;2022-09-16T16:07:59;14.10;74.25
69731;SHT31;56996;48.138;11.538;2022-09-16T16:10:34;14.13;74.27
69731;SHT31;56996;48.138;11.538;2022-09-16T16:13:01;14.11;74.27
69731;SHT31;56996;48.138;11.538;2022-09-16T16:15:32;14.00;74.12
69731;SHT31;56996;48.138;11.538;2022-09-16T16:18:02;13.94;74.38
69731;SHT31;56996;48.138;11.538;2022-09-16T16:20:33;13.94;74.66
69731;SHT31;56996;48.138;11.538;2022-09-16T16:23:03;13.98;74.66
69731;SHT31;56996;48.138;11.538;2022-09-16T16:25:29;14.04;74.63
69731;SHT31;56996;48.138;11.538;2022-09-16T16:27:57;14.04;74.53
69731;SHT31;56996;48.138;11.538;2022-09-16T16:30:23;14.06;74.43
69731;SHT31;56996;48.138;11.538;2022-09-16T16:32:50;14.03;74.29
69731;SHT31;56996;48.138;11.538;2022-09-16T16:35:17;13.95;74.81
69731;SHT31;56996;48.138;11.538;2022-09-16T16:37:43;13.93;74.75
69731;SHT31;56996;48.138;11.538;2022-09-16T16:40:12;13.99;74.89
69731;SHT31;56996;48.138;11.538;2022-09-16T16:42:41;14.03;75.05
69731;SHT31;56996;48.138;11.538;2022-09-16T16:45:12;14.04;74.90
69731;SHT31;56996;48.138;11.538;2022-09-16T16:47:40;14.04;74.50
69731;SHT31;56996;48.138;11.538;2022-09-16T16:50:07;13.99;74.45
69731;SHT31;56996;48.138;11.538;2022-09-16T16:52:35;13.95;74.44
69731;SHT31;56996;48.138;11.538;2022-09-16T16:55:02;13.94;74.41
69731;SHT31;56996;48.138;11.538;2022-09-16T16:57:30;13.93;74.37
69731;SHT31;56996;48.138;11.538;2022-09-16T16:59:57;13.94;74.39
69731;SHT31;56996;48.138;11.538;2022-09-16T17:02:23;13.93;74.53
69731;SHT31;56996;48.138;11.538;2022-09-16T17:04:51;13.95;74.38
69731;SHT31;56996;48.138;11.538;2022-09-16T17:07:18;13.95;74.22
69731;SHT31;56996;48.138;11.538;2022-09-16T17:09:54;13.91;74.32
69731;SHT31;56996;48.138;11.538;2022-09-16T17:12:22;13.87;74.20
69731;SHT31;56996;48.138;11.538;2022-09-16T17:14:49;13.77;74.17
69731;SHT31;56996;48.138;11.538;2022-09-16T17:17:16;13.74;74.36
69731;SHT31;56996;48.138;11.538;2022-09-16T17:19:43;13.76;74.37
69731;SHT31;56996;48.138;11.538;2022-09-16T17:22:09;13.75;74.43
69731;SHT31;56996;48.138;11.538;2022-09-16T17:24:36;13.72;74.25
69731;SHT31;56996;48.138;11.538;2022-09-16T17:27:03;13.67;74.39
69731;SHT31;56996;48.138;11.538;2022-09-16T17:29:30;13.66;74.47
69731;SHT31;56996;48.138;11.538;2022-09-16T17:31:56;13.67;74.36
69731;SHT31;56996;48.138;11.538;2022-09-16T17:34:25;13.62;74.43
69731;SHT31;56996;48.138;11.538;2022-09-16T17:36:52;13.57;74.46
69731;SHT31;56996;48.138;11.538;2022-09-16T17:39:20;13.52;74.74
69731;SHT31;56996;48.138;11.538;2022-09-16T17:41:48;13.51;74.68
69731;SHT31;56996;48.138;11.538;2022-09-16T17:44:16;13.49;74.80
69731;SHT31;56996;48.138;11.538;2022-09-16T17:46:44;13.47;74.80
69731;SHT31;56996;48.138;11.538;2022-09-16T17:49:16;13.43;74.87
69731;SHT31;56996;48.138;11.538;2022-09-16T17:51:50;13.43;75.03
69731;SHT31;56996;48.138;11.538;2022-09-16T17:54:19;13.44;74.99
69731;SHT31;56996;48.138;11.538;2022-09-16T17:56:47;13.44;74.91
69731;SHT31;56996;48.138;11.538;2022-09-16T17:59:14;13.38;75.10
69731;SHT31;56996;48.138;11.538;2022-09-16T18:01:43;13.36;75.22
69731;SHT31;56996;48.138;11.538;2022-09-16T18:04:10;13.26;75.43
69731;SHT31;56996;48.138;11.538;2022-09-16T18:06:43;13.22;75.29
69731;SHT31;56996;48.138;11.538;2022-09-16T18:09:12;13.21;75.40
69731;SHT31;56996;48.138;11.538;2022-09-16T18:11:39;13.18;75.37
69731;SHT31;56996;48.138;11.538;2022-09-16T18:14:07;13.15;75.32
69731;SHT31;56996;48.138;11.538;2022-09-16T18:16:37;13.13;75.40
69731;SHT31;56996;48.138;11.538;2022-09-16T18:19:04;13.10;75.57
69731;SHT31;56996;48.138;11.538;2022-09-16T18:21:31;13.07;75.73
69731;SHT31;56996;48.138;11.538;2022-09-16T18:24:00;13.03;75.72
69731;SHT31;56996;48.138;11.538;2022-09-16T18:26:28;13.02;75.68
69731;SHT31;56996;48.138;11.538;2022-09-16T18:28:57;12.98;75.82
69731;SHT31;56996;48.138;11.538;2022-09-16T18:31:41;12.96;75.95
69731;SHT31;56996;48.138;11.538;2022-09-16T18:34:11;12.97;75.93
69731;SHT31;56996;48.138;11.538;2022-09-16T18:36:39;13.00;75.83
69731;SHT31;56996;48.138;11.538;2022-09-16T18:39:08;13.01;75.84
69731;SHT31;56996;48.138;11.538;2022-09-16T18:41:39;13.02;75.94
69731;SHT31;56996;48.138;11.538;2022-09-16T18:44:10;13.06;75.95